createdAt,value
2023-03-22T00:00:06.026Z,12.30
2023-03-22T00:02:38.028Z,12.20
2023-03-22T00:05:10.425Z,11.90
2023-03-22T00:07:43.582Z,12.00
2023-03-22T00:10:15.817Z,12.00
2023-03-22T00:12:50.388Z,11.90
2023-03-22T00:15:22.777Z,11.80
2023-03-22T00:17:55.641Z,11.70
2023-03-22T00:20:30.428Z,11.70
2023-03-22T00:23:02.611Z,11.60
2023-03-22T00:25:34.645Z,11.60
2023-03-22T00:28:09.337Z,11.60
2023-03-22T00:30:41.417Z,11.50
2023-03-22T00:33:13.404Z,11.50
2023-03-22T00:35:49.025Z,11.40
2023-03-22T00:38:27.200Z,11.40
2023-03-22T00:41:09.211Z,11.30
2023-03-22T00:43:44.370Z,11.30
2023-03-22T00:46:17.766Z,11.30
2023-03-22T00:48:49.822Z,11.20
2023-03-22T00:51:21.885Z,11.20
2023-03-22T00:53:54.815Z,11.20
2023-03-22T00:56:29.223Z,11.10
2023-03-22T00:59:04.086Z,11.10
2023-03-22T01:01:36.258Z,11.10
2023-03-22T01:04:15.495Z,11.10
2023-03-22T01:06:47.640Z,11.10
2023-03-22T01:09:23.939Z,11.10
2023-03-22T01:11:56.924Z,11.10
2023-03-22T01:14:31.931Z,11.00
2023-03-22T01:17:04.700Z,11.10
2023-03-22T01:19:37.770Z,11.00
2023-03-22T01:22:10.146Z,11.00
2023-03-22T01:24:42.150Z,11.00
2023-03-22T01:27:14.169Z,11.00
2023-03-22T01:29:48.986Z,11.00
2023-03-22T01:32:21.031Z,11.00
2023-03-22T01:34:53.412Z,11.00
2023-03-22T01:37:27.827Z,11.00
2023-03-22T01:40:00.048Z,11.00
2023-03-22T01:42:32.130Z,11.00
2023-03-22T01:45:43.729Z,11.10
2023-03-22T01:48:24.852Z,11.00
2023-03-22T01:51:05.181Z,11.00
2023-03-22T01:53:41.669Z,11.00
2023-03-22T01:56:14.068Z,11.00
2023-03-22T01:58:47.304Z,11.00
2023-03-22T02:01:22.671Z,11.00
2023-03-22T02:03:58.644Z,11.00
2023-03-22T02:06:32.474Z,11.00
2023-03-22T02:09:05.225Z,11.00
2023-03-22T02:11:43.905Z,11.00
2023-03-22T02:14:39.274Z,10.90
2023-03-22T02:17:36.105Z,10.90
2023-03-22T02:20:51.039Z,10.80
2023-03-22T02:23:55.752Z,10.80
2023-03-22T02:26:59.677Z,10.70
2023-03-22T02:29:40.024Z,10.70
2023-03-22T02:32:38.612Z,10.50
2023-03-22T02:35:39.237Z,10.60
2023-03-22T02:38:42.537Z,10.50
2023-03-22T02:41:26.256Z,10.50
2023-03-22T02:44:06.669Z,10.40
2023-03-22T02:46:44.233Z,10.40
2023-03-22T02:49:21.558Z,10.30
2023-03-22T02:52:00.035Z,10.30
2023-03-22T02:54:38.251Z,10.30
2023-03-22T02:57:20.444Z,10.20
2023-03-22T02:59:54.024Z,10.20
2023-03-22T03:02:28.228Z,10.20
2023-03-22T03:05:00.828Z,10.20
2023-03-22T03:07:33.789Z,10.20
2023-03-22T03:10:07.722Z,10.10
2023-03-22T03:12:43.324Z,10.10
2023-03-22T03:15:18.652Z,10.20
2023-03-22T03:18:05.080Z,10.10
2023-03-22T03:20:49.216Z,10.20
2023-03-22T03:23:28.688Z,10.10
2023-03-22T03:26:08.322Z,10.20
2023-03-22T03:28:49.915Z,10.20
2023-03-22T03:31:31.125Z,10.20
2023-03-22T03:34:09.844Z,10.20
2023-03-22T03:36:47.535Z,10.20
2023-03-22T03:39:22.211Z,10.20
2023-03-22T03:41:56.832Z,10.30
2023-03-22T03:44:33.752Z,10.20
2023-03-22T03:47:07.371Z,10.20
2023-03-22T03:49:39.718Z,10.30
2023-03-22T03:52:13.401Z,10.30
2023-03-22T03:54:45.692Z,10.30
2023-03-22T03:57:17.789Z,10.30
2023-03-22T03:59:52.381Z,10.30
2023-03-22T04:02:24.385Z,10.30
2023-03-22T04:04:56.362Z,10.40
2023-03-22T04:07:28.325Z,10.40
2023-03-22T04:10:00.325Z,10.40
2023-03-22T04:12:32.596Z,10.40
2023-03-22T04:15:08.573Z,10.40
2023-03-22T04:17:41.219Z,10.50
2023-03-22T04:20:13.923Z,10.50
2023-03-22T04:22:46.928Z,10.50
2023-03-22T04:25:19.676Z,10.50
2023-03-22T04:27:51.702Z,10.60
2023-03-22T04:30:27.488Z,10.60
2023-03-22T04:33:01.359Z,10.60
2023-03-22T04:35:34.183Z,10.60
2023-03-22T04:38:07.915Z,10.60
2023-03-22T04:40:46.581Z,10.70
2023-03-22T04:43:19.074Z,10.70
2023-03-22T04:45:55.052Z,10.70
2023-03-22T04:48:28.224Z,10.70
2023-03-22T04:51:04.226Z,10.70
2023-03-22T04:53:40.131Z,10.70
2023-03-22T04:56:13.898Z,10.70
2023-03-22T04:58:46.715Z,10.70
2023-03-22T05:01:21.526Z,10.60
2023-03-22T05:03:53.673Z,10.60
2023-03-22T05:06:26.402Z,10.60
2023-03-22T05:08:58.362Z,10.50
2023-03-22T05:11:30.452Z,10.50
2023-03-22T05:14:02.968Z,10.50
2023-03-22T05:16:40.699Z,10.40
2023-03-22T05:19:14.054Z,10.30
2023-03-22T05:21:46.666Z,10.30
2023-03-22T05:24:18.653Z,10.40
2023-03-22T05:26:53.760Z,10.40
2023-03-22T05:29:27.139Z,10.40
2023-03-22T05:32:01.947Z,10.50
2023-03-22T05:34:37.105Z,10.30
2023-03-22T05:37:09.138Z,10.30
2023-03-22T05:39:41.508Z,10.20
2023-03-22T05:42:17.484Z,10.20
2023-03-22T05:44:49.476Z,10.20
2023-03-22T05:47:24.222Z,10.20
2023-03-22T05:49:56.268Z,10.10
2023-03-22T05:52:29.656Z,10.10
2023-03-22T05:55:04.687Z,10.00
2023-03-22T05:57:40.900Z,10.00
2023-03-22T06:00:20.400Z,10.00
2023-03-22T06:03:03.467Z,10.00
2023-03-22T06:05:37.406Z,10.00
2023-03-22T06:08:09.434Z,9.90
2023-03-22T06:10:41.925Z,9.90
2023-03-22T06:13:14.702Z,9.90
2023-03-22T06:15:47.174Z,9.90
2023-03-22T06:18:21.837Z,9.90
2023-03-22T06:20:53.884Z,9.90
2023-03-22T06:23:26.089Z,9.90
2023-03-22T06:25:58.175Z,9.90
2023-03-22T06:28:30.212Z,9.90
2023-03-22T06:31:06.693Z,10.00
2023-03-22T06:33:41.316Z,9.90
2023-03-22T06:36:13.369Z,10.00
2023-03-22T06:38:45.438Z,10.00
2023-03-22T06:41:17.406Z,10.00
2023-03-22T06:43:49.428Z,10.00
2023-03-22T06:46:21.735Z,10.00
2023-03-22T06:48:56.547Z,10.00
2023-03-22T06:51:28.789Z,10.00
2023-03-22T06:54:01.473Z,10.00
2023-03-22T06:56:33.494Z,10.10
2023-03-22T06:59:05.618Z,10.10
2023-03-22T07:01:37.766Z,10.20
2023-03-22T07:04:12.453Z,10.20
2023-03-22T07:06:44.553Z,10.20
2023-03-22T07:09:16.938Z,10.30
2023-03-22T07:11:48.978Z,10.30
2023-03-22T07:14:21.358Z,10.30
2023-03-22T07:16:53.341Z,10.40
2023-03-22T07:19:28.235Z,10.50
2023-03-22T07:22:00.283Z,10.50
2023-03-22T07:24:32.404Z,10.50
2023-03-22T07:27:04.501Z,10.60
2023-03-22T07:29:36.502Z,10.70
2023-03-22T07:32:08.611Z,10.70
2023-03-22T07:34:43.214Z,10.80
2023-03-22T07:37:15.386Z,10.90
2023-03-22T07:39:47.429Z,11.00
2023-03-22T07:42:19.417Z,11.00
2023-03-22T07:44:51.469Z,11.10
2023-03-22T07:47:39.492Z,11.20
2023-03-22T07:50:15.374Z,11.20
2023-03-22T07:52:47.638Z,11.30
2023-03-22T07:55:19.877Z,11.30
2023-03-22T07:57:51.929Z,11.40
2023-03-22T08:00:24.506Z,11.40
2023-03-22T08:02:56.576Z,11.50
2023-03-22T08:05:31.403Z,11.60
2023-03-22T08:08:03.440Z,11.60
2023-03-22T08:10:35.689Z,11.70
2023-03-22T08:13:08.082Z,11.80
2023-03-22T08:15:40.906Z,11.80
2023-03-22T08:18:13.242Z,11.90
2023-03-22T08:20:53.415Z,12.00
2023-03-22T08:23:38.388Z,12.20
2023-03-22T08:26:13.231Z,12.30
2023-03-22T08:28:45.493Z,12.40
2023-03-22T08:31:18.568Z,12.60
2023-03-22T08:33:50.924Z,12.70
2023-03-22T08:36:25.704Z,12.80
2023-03-22T08:38:57.942Z,13.00
2023-03-22T08:41:30.275Z,13.20
2023-03-22T08:44:02.327Z,13.30
2023-03-22T08:46:34.428Z,13.40
2023-03-22T08:49:06.836Z,13.50
2023-03-22T08:51:41.398Z,13.60
2023-03-22T08:54:13.783Z,13.80
2023-03-22T08:56:45.840Z,13.80
2023-03-22T08:59:18.043Z,13.90
2023-03-22T09:01:50.315Z,14.00
2023-03-22T09:04:22.510Z,14.10
2023-03-22T09:06:57.142Z,14.20
2023-03-22T09:09:31.331Z,14.40
2023-03-22T09:12:03.359Z,14.40
2023-03-22T09:14:36.054Z,14.50
2023-03-22T09:17:08.062Z,14.50
2023-03-22T09:19:40.148Z,14.60
2023-03-22T09:22:14.817Z,14.70
2023-03-22T09:24:46.794Z,14.70
2023-03-22T09:27:18.805Z,14.10
2023-03-22T09:29:52.471Z,14.80
2023-03-22T09:32:24.536Z,14.80
2023-03-22T09:34:56.519Z,14.70
2023-03-22T09:37:31.433Z,15.00
2023-03-22T09:40:05.867Z,15.00
2023-03-22T09:42:42.640Z,15.20
2023-03-22T09:45:18.681Z,15.20
2023-03-22T09:47:54.633Z,15.20
2023-03-22T09:50:30.623Z,15.30
2023-03-22T09:53:09.420Z,15.40
2023-03-22T09:55:46.066Z,15.40
2023-03-22T09:58:25.977Z,15.40
2023-03-22T10:01:01.307Z,15.50
2023-03-22T10:04:02.046Z,15.50
2023-03-22T10:06:34.023Z,15.60
2023-03-22T10:09:16.102Z,15.60
2023-03-22T10:11:55.116Z,15.70
2023-03-22T10:14:31.909Z,15.70
2023-03-22T10:17:09.759Z,15.80
2023-03-22T10:19:50.649Z,15.90
2023-03-22T10:22:27.933Z,15.90
2023-03-22T10:25:05.009Z,16.00
2023-03-22T10:27:37.805Z,16.10
2023-03-22T10:30:20.207Z,16.20
2023-03-22T10:32:58.122Z,16.30
2023-03-22T10:35:31.859Z,16.40
2023-03-22T10:38:18.674Z,16.40
2023-03-22T10:40:55.326Z,16.50
2023-03-22T10:43:32.784Z,16.60
2023-03-22T10:46:07.737Z,16.70
2023-03-22T10:48:43.602Z,16.70
2023-03-22T10:51:24.762Z,16.80
2023-03-22T10:53:58.308Z,16.80
2023-03-22T10:56:33.169Z,16.80
2023-03-22T10:59:05.581Z,16.90
2023-03-22T11:01:45.180Z,16.90
2023-03-22T11:04:17.391Z,17.00
2023-03-22T11:06:54.737Z,17.00
2023-03-22T11:09:28.010Z,17.10
2023-03-22T11:12:03.258Z,17.10
2023-03-22T11:14:37.118Z,17.10
2023-03-22T11:17:14.146Z,17.20
2023-03-22T11:19:53.560Z,17.20
2023-03-22T11:22:29.925Z,17.20
2023-03-22T11:25:03.713Z,17.30
2023-03-22T11:27:50.443Z,17.30
2023-03-22T11:30:24.261Z,17.40
2023-03-22T11:33:09.736Z,17.40
2023-03-22T11:35:45.630Z,17.50
2023-03-22T11:38:29.557Z,17.50
2023-03-22T11:41:02.440Z,17.60
2023-03-22T11:43:40.254Z,17.70
2023-03-22T11:46:12.575Z,17.70
2023-03-22T11:48:47.226Z,17.80
2023-03-22T11:51:29.880Z,18.00
2023-03-22T11:54:09.429Z,18.00
2023-03-22T11:56:42.646Z,18.10
2023-03-22T12:01:59.658Z,18.30
2023-03-22T12:04:38.654Z,18.40
2023-03-22T12:07:15.816Z,18.60
2023-03-22T12:09:52.985Z,18.90
2023-03-22T12:12:29.952Z,19.10
2023-03-22T12:15:08.023Z,19.10
2023-03-22T12:17:45.062Z,19.10
2023-03-22T12:20:25.681Z,19.00
2023-03-22T12:22:58.235Z,19.00
2023-03-22T12:25:32.263Z,18.90
2023-03-22T12:28:07.130Z,18.80
2023-03-22T12:30:43.370Z,18.80
2023-03-22T12:33:21.789Z,19.00
2023-03-22T12:35:57.647Z,19.30
2023-03-22T12:38:37.526Z,19.70
2023-03-22T12:41:14.662Z,19.90
2023-03-22T12:43:52.147Z,20.30
2023-03-22T12:46:29.646Z,20.70
2023-03-22T12:49:07.457Z,21.30
2023-03-22T12:51:42.050Z,21.20
2023-03-22T12:54:15.354Z,21.30
2023-03-22T12:56:48.237Z,21.50
2023-03-22T12:59:23.466Z,21.60
2023-03-22T13:02:01.261Z,21.60
2023-03-22T13:04:49.948Z,21.70
2023-03-22T13:07:47.500Z,21.90
2023-03-22T13:10:42.023Z,22.10
2023-03-22T13:13:32.500Z,22.20
2023-03-22T13:16:42.707Z,22.40
2023-03-22T13:19:33.549Z,22.70
2023-03-22T13:22:18.456Z,22.90
2023-03-22T13:25:06.144Z,23.00
2023-03-22T13:27:40.085Z,23.10
2023-03-22T13:30:22.022Z,23.10
2023-03-22T13:35:40.981Z,23.40
2023-03-22T13:38:21.915Z,23.50
2023-03-22T13:41:01.304Z,23.60
2023-03-22T13:43:35.721Z,23.30
2023-03-22T13:46:31.235Z,22.90
2023-03-22T13:49:43.301Z,22.60
2023-03-22T13:52:33.418Z,22.60
2023-03-22T13:55:18.586Z,22.70
2023-03-22T13:57:58.974Z,22.80
2023-03-22T14:00:42.546Z,22.80
2023-03-22T14:03:22.848Z,22.90
2023-03-22T14:06:13.921Z,22.90
2023-03-22T14:08:52.644Z,23.00
2023-03-22T14:11:29.434Z,23.10
2023-03-22T14:14:08.113Z,23.20
2023-03-22T14:16:43.610Z,23.20
2023-03-22T14:19:20.328Z,23.20
2023-03-22T14:52:51.704Z,21.70
2023-03-22T14:55:28.589Z,21.70
2023-03-22T14:58:03.466Z,21.80
2023-03-22T15:00:39.944Z,21.80
2023-03-22T15:03:23.404Z,21.90
2023-03-22T15:05:55.455Z,21.90
2023-03-22T15:08:31.897Z,21.90
2023-03-22T15:11:12.167Z,21.80
2023-03-22T15:13:47.755Z,21.60
2023-03-22T15:16:22.697Z,21.50
2023-03-22T15:18:55.739Z,21.30
2023-03-22T15:21:28.257Z,21.30
2023-03-22T15:24:14.505Z,21.10
2023-03-22T15:26:49.349Z,21.10
2023-03-22T15:29:28.170Z,20.90
2023-03-22T15:32:01.332Z,20.80
2023-03-22T15:34:33.939Z,20.60
2023-03-22T15:37:06.940Z,20.50
2023-03-22T15:39:40.441Z,20.40
2023-03-22T15:42:21.438Z,20.20
2023-03-22T15:44:58.719Z,20.10
2023-03-22T15:47:32.037Z,20.00
2023-03-22T15:50:08.054Z,19.90
2023-03-22T15:52:50.220Z,19.80
2023-03-22T15:55:32.282Z,19.70
2023-03-22T15:58:25.444Z,19.70
2023-03-22T16:01:08.262Z,19.60
2023-03-22T16:03:44.681Z,19.50
2023-03-22T16:06:16.808Z,19.50
2023-03-22T16:08:49.012Z,19.40
2023-03-22T16:11:24.604Z,19.40
2023-03-22T16:13:59.292Z,19.30
2023-03-22T16:16:31.570Z,19.30
2023-03-22T16:19:03.664Z,19.30
2023-03-22T16:21:35.951Z,19.20
2023-03-22T16:24:08.682Z,19.20
2023-03-22T16:26:41.641Z,19.20
2023-03-22T16:29:16.318Z,19.10
2023-03-22T16:31:54.476Z,19.10
2023-03-22T16:34:28.164Z,19.00
2023-03-22T16:37:00.380Z,18.90
2023-03-22T16:39:32.539Z,18.90
2023-03-22T16:42:04.780Z,18.80
2023-03-22T16:44:44.773Z,18.90
2023-03-22T16:47:24.496Z,18.80
2023-03-22T16:49:56.704Z,18.80
2023-03-22T16:52:29.206Z,18.80
2023-03-22T16:55:01.370Z,18.80
2023-03-22T16:57:33.558Z,18.80
2023-03-22T17:00:09.615Z,18.80
2023-03-22T17:02:41.889Z,18.80
2023-03-22T17:05:14.651Z,18.80
2023-03-22T17:07:47.286Z,18.70
2023-03-22T17:10:20.432Z,18.70
2023-03-22T17:12:52.978Z,18.70
2023-03-22T17:15:32.008Z,18.70
2023-03-22T17:18:05.600Z,18.70
2023-03-22T17:20:38.853Z,18.60
2023-03-22T17:23:12.418Z,18.60
2023-03-22T17:25:47.707Z,18.60
2023-03-22T17:28:22.755Z,18.60
2023-03-22T17:30:59.346Z,18.60
2023-03-22T17:33:32.242Z,18.60
2023-03-22T17:36:05.013Z,18.60
2023-03-22T17:41:12.450Z,18.50
2023-03-22T17:43:44.567Z,18.50
2023-03-22T17:46:58.423Z,18.40
2023-03-22T17:49:11.629Z,18.40
2023-03-22T17:51:43.800Z,18.30
2023-03-22T17:54:43.117Z,18.30
2023-03-22T17:57:36.401Z,18.20
2023-03-22T18:00:00.468Z,18.20
2023-03-22T18:02:35.475Z,18.20
2023-03-22T18:05:08.361Z,18.10
2023-03-22T18:07:40.571Z,18.10
2023-03-22T18:10:13.719Z,18.10
2023-03-22T18:12:47.662Z,18.10
2023-03-22T18:15:20.519Z,18.00
2023-03-22T18:17:55.264Z,17.90
2023-03-22T18:20:51.002Z,17.80
2023-03-22T18:23:19.788Z,17.80
2023-03-22T18:25:58.143Z,17.60
2023-03-22T18:28:31.759Z,17.70
2023-03-22T18:31:03.909Z,17.60
2023-03-22T18:33:40.519Z,17.50
2023-03-22T18:36:13.291Z,17.50
2023-03-22T18:44:06.234Z,17.30
2023-03-22T18:46:38.589Z,17.20
2023-03-22T18:49:13.590Z,17.30
2023-03-22T18:52:23.351Z,17.20
2023-03-22T18:54:39.896Z,17.60
2023-03-22T19:05:48.637Z,16.80
2023-03-22T19:21:26.931Z,17.70
2023-03-22T19:24:04.660Z,18.00
2023-03-22T19:26:39.833Z,18.20
2023-03-22T19:29:13.385Z,18.40
2023-03-22T19:31:45.956Z,18.60
2023-03-22T19:34:18.041Z,18.80
2023-03-22T19:36:54.110Z,18.80
2023-03-22T19:39:26.449Z,19.00
2023-03-22T19:42:05.452Z,19.00
2023-03-22T19:44:38.954Z,19.10
2023-03-22T19:47:13.911Z,19.20
2023-03-22T19:49:47.655Z,19.30
2023-03-22T19:52:22.364Z,19.30
2023-03-22T19:54:54.825Z,19.40
2023-03-22T19:57:27.864Z,19.40
2023-03-22T20:00:36.334Z,19.40
2023-03-22T20:02:52.193Z,19.50
2023-03-22T20:05:25.488Z,19.50
2023-03-22T20:08:00.258Z,19.50
2023-03-22T20:10:32.435Z,19.60
2023-03-22T20:13:04.913Z,19.60
2023-03-22T20:15:37.075Z,19.60
2023-03-22T20:18:09.187Z,19.70
2023-03-22T20:20:43.696Z,19.70
2023-03-22T20:23:19.336Z,19.70
2023-03-22T20:25:53.078Z,19.60
2023-03-22T20:28:25.442Z,19.60
2023-03-22T20:30:57.712Z,19.50
2023-03-22T20:33:29.944Z,19.60
2023-03-22T20:36:02.714Z,19.50
2023-03-22T20:38:38.817Z,19.50
2023-03-22T20:41:15.369Z,19.50
2023-03-22T20:43:47.713Z,19.50
2023-03-22T20:46:19.926Z,19.60
2023-03-22T20:48:54.836Z,19.60
2023-03-22T20:51:29.022Z,19.60
2023-03-22T20:54:04.379Z,19.60
2023-03-22T20:56:36.498Z,19.70
2023-03-22T20:59:08.687Z,19.80
2023-03-22T21:01:41.113Z,19.80
2023-03-22T21:04:13.590Z,19.80
2023-03-22T21:06:45.891Z,19.80
2023-03-22T21:09:20.817Z,19.80
2023-03-22T21:11:52.900Z,19.80
2023-03-22T21:14:25.820Z,19.80
2023-03-22T21:16:57.956Z,19.70
2023-03-22T21:19:30.168Z,19.70
2023-03-22T21:22:05.238Z,19.70
2023-03-22T21:24:40.602Z,19.60
2023-03-22T21:27:12.948Z,19.70
2023-03-22T21:29:45.044Z,19.70
2023-03-22T21:32:17.177Z,19.80
2023-03-22T21:34:49.545Z,19.80
2023-03-22T21:37:21.683Z,19.90
2023-03-22T21:39:56.620Z,19.90
2023-03-22T21:42:28.851Z,19.90
2023-03-22T21:45:00.999Z,19.90
2023-03-22T21:47:34.337Z,19.80
2023-03-22T21:50:08.457Z,19.60
2023-03-22T21:52:41.137Z,19.20
2023-03-22T21:55:17.467Z,18.80
2023-03-22T21:57:51.080Z,18.50
2023-03-22T22:00:25.130Z,18.20
2023-03-22T22:02:58.662Z,18.00
2023-03-22T22:05:30.786Z,17.70
2023-03-22T22:08:04.652Z,17.50
2023-03-22T22:10:39.332Z,17.40
2023-03-22T22:13:11.645Z,17.20
2023-03-22T22:15:43.746Z,17.10
2023-03-22T22:18:16.707Z,17.00
2023-03-22T22:20:54.471Z,16.90
2023-03-22T22:23:27.440Z,16.80
2023-03-22T22:26:04.758Z,16.70
2023-03-22T22:28:38.264Z,16.60
2023-03-22T22:31:10.865Z,16.60
2023-03-22T22:33:43.491Z,16.50
2023-03-22T22:36:16.334Z,16.50
2023-03-22T22:38:49.056Z,16.40
2023-03-22T22:41:24.113Z,16.40
2023-03-22T22:43:56.313Z,16.30
2023-03-22T22:46:29.138Z,16.30
2023-03-22T22:49:01.249Z,16.20
2023-03-22T22:51:33.614Z,16.20
2023-03-22T22:54:06.504Z,16.10
2023-03-22T22:56:41.272Z,16.10
2023-03-22T22:59:13.363Z,16.10
2023-03-22T23:01:45.517Z,16.00
2023-03-22T23:04:17.933Z,16.10
2023-03-22T23:06:52.555Z,16.10
2023-03-22T23:09:25.007Z,16.00
2023-03-22T23:11:59.701Z,16.00
2023-03-22T23:14:31.930Z,15.90
2023-03-22T23:17:04.043Z,15.90
2023-03-22T23:19:38.377Z,15.90
2023-03-22T23:22:14.220Z,15.90
2023-03-22T23:24:46.655Z,15.80
2023-03-22T23:27:21.326Z,15.90
2023-03-22T23:29:53.410Z,15.90
2023-03-22T23:32:25.470Z,15.80
2023-03-22T23:34:58.000Z,15.80
2023-03-22T23:37:31.310Z,15.80
2023-03-22T23:40:10.537Z,15.80
2023-03-22T23:42:45.516Z,15.80
2023-03-22T23:45:18.579Z,15.80
2023-03-22T23:47:50.979Z,15.80
2023-03-22T23:50:23.178Z,15.80
2023-03-22T23:52:55.448Z,15.80
2023-03-22T23:55:29.416Z,15.80
2023-03-22T23:58:04.336Z,15.80
